sensor_id;sensor_type;location;lat;lon;timestamp;temperature;humidity
68257;DHT22;55069;51.568;4.656;2023-05-19T00:00:51;9.57;76.23
68257;DHT22;55069;51.568;4.656;2023-05-19T00:03:17;9.53;76.35
68257;DHT22;55069;51.568;4.656;2023-05-19T00:05:47;9.52;76.46
68257;DHT22;55069;51.568;4.656;2023-05-19T00:08:15;9.48;76.67
68257;DHT22;55069;51.568;4.656;2023-05-19T00:10:42;9.40;76.71
68257;DHT22;55069;51.568;4.656;2023-05-19T00:13:08;9.36;76.79
68257;DHT22;55069;51.568;4.656;2023-05-19T00:15:33;9.29;76.92
68257;DHT22;55069;51.568;4.656;2023-05-19T00:17:59;9.29;77.13
68257;DHT22;55069;51.568;4.656;2023-05-19T00:20:25;9.28;77.25
68257;DHT22;55069;51.568;4.656;2023-05-19T00:22:50;9.25;77.39
68257;DHT22;55069;51.568;4.656;2023-05-19T00:25:16;9.21;77.38
68257;DHT22;55069;51.568;4.656;2023-05-19T00:27:41;9.22;77.48
68257;DHT22;55069;51.568;4.656;2023-05-19T00:30:08;9.15;77.42
68257;DHT22;55069;51.568;4.656;2023-05-19T00:32:33;9.18;77.71
68257;DHT22;55069;51.568;4.656;2023-05-19T00:34:59;9.08;77.91
68257;DHT22;55069;51.568;4.656;2023-05-19T00:37:25;9.11;78.03
68257;DHT22;55069;51.568;4.656;2023-05-19T00:39:51;9.03;78.28
68257;DHT22;55069;51.568;4.656;2023-05-19T00:42:16;9.03;78.33
68257;DHT22;55069;51.568;4.656;2023-05-19T00:44:42;9.00;78.40
68257;DHT22;55069;51.568;4.656;2023-05-19T00:47:08;8.96;78.84
68257;DHT22;55069;51.568;4.656;2023-05-19T00:49:34;8.90;79.13
68257;DHT22;55069;51.568;4.656;2023-05-19T00:52:01;8.88;79.31
68257;DHT22;55069;51.568;4.656;2023-05-19T00:54:27;8.88;79.48
68257;DHT22;55069;51.568;4.656;2023-05-19T00:56:54;8.81;79.80
68257;DHT22;55069;51.568;4.656;2023-05-19T00:59:20;8.80;79.99
68257;DHT22;55069;51.568;4.656;2023-05-19T01:01:46;8.80;80.18
68257;DHT22;55069;51.568;4.656;2023-05-19T01:04:18;8.74;80.28
68257;DHT22;55069;51.568;4.656;2023-05-19T01:06:48;8.77;80.43
68257;DHT22;55069;51.568;4.656;2023-05-19T01:09:22;8.73;80.45
68257;DHT22;55069;51.568;4.656;2023-05-19T01:11:49;8.71;80.86
68257;DHT22;55069;51.568;4.656;2023-05-19T01:14:14;8.64;80.88
68257;DHT22;55069;51.568;4.656;2023-05-19T01:16:57;8.62;80.96
68257;DHT22;55069;51.568;4.656;2023-05-19T01:19:50;8.57;81.29
68257;DHT22;55069;51.568;4.656;2023-05-19T01:22:53;8.53;81.51
68257;DHT22;55069;51.568;4.656;2023-05-19T01:28:25;8.43;81.97
68257;DHT22;55069;51.568;4.656;2023-05-19T01:30:57;8.38;82.41
68257;DHT22;55069;51.568;4.656;2023-05-19T01:33:24;8.38;82.34
68257;DHT22;55069;51.568;4.656;2023-05-19T01:35:52;8.39;82.31
68257;DHT22;55069;51.568;4.656;2023-05-19T01:38:19;8.33;82.70
68257;DHT22;55069;51.568;4.656;2023-05-19T01:40:47;8.25;82.74
68257;DHT22;55069;51.568;4.656;2023-05-19T01:43:19;8.28;83.13
68257;DHT22;55069;51.568;4.656;2023-05-19T01:45:45;8.25;83.13
68257;DHT22;55069;51.568;4.656;2023-05-19T01:48:12;8.26;83.21
68257;DHT22;55069;51.568;4.656;2023-05-19T01:50:39;8.24;83.36
68257;DHT22;55069;51.568;4.656;2023-05-19T01:53:05;8.18;83.07
68257;DHT22;55069;51.568;4.656;2023-05-19T01:55:35;8.16;83.27
68257;DHT22;55069;51.568;4.656;2023-05-19T02:00:55;8.14;83.48
68257;DHT22;55069;51.568;4.656;2023-05-19T02:03:30;8.11;83.60
68257;DHT22;55069;51.568;4.656;2023-05-19T02:11:35;8.09;83.65
68257;DHT22;55069;51.568;4.656;2023-05-19T02:14:08;8.01;83.71
68257;DHT22;55069;51.568;4.656;2023-05-19T02:16:37;7.98;83.64
68257;DHT22;55069;51.568;4.656;2023-05-19T02:19:03;7.98;83.85
68257;DHT22;55069;51.568;4.656;2023-05-19T02:21:29;7.98;83.48
68257;DHT22;55069;51.568;4.656;2023-05-19T02:23:55;7.97;83.94
68257;DHT22;55069;51.568;4.656;2023-05-19T02:26:20;7.97;84.46
68257;DHT22;55069;51.568;4.656;2023-05-19T02:28:47;7.93;84.38
68257;DHT22;55069;51.568;4.656;2023-05-19T02:31:12;7.85;84.72
68257;DHT22;55069;51.568;4.656;2023-05-19T02:33:38;7.88;84.66
68257;DHT22;55069;51.568;4.656;2023-05-19T02:36:04;7.87;84.93
68257;DHT22;55069;51.568;4.656;2023-05-19T02:38:29;7.83;84.83
68257;DHT22;55069;51.568;4.656;2023-05-19T02:40:56;7.84;84.76
68257;DHT22;55069;51.568;4.656;2023-05-19T02:43:22;7.80;84.84
68257;DHT22;55069;51.568;4.656;2023-05-19T02:45:48;7.78;84.81
68257;DHT22;55069;51.568;4.656;2023-05-19T02:48:13;7.81;84.81
68257;DHT22;55069;51.568;4.656;2023-05-19T02:50:39;7.70;85.25
68257;DHT22;55069;51.568;4.656;2023-05-19T02:53:04;7.66;85.25
68257;DHT22;55069;51.568;4.656;2023-05-19T02:55:30;7.66;85.37
68257;DHT22;55069;51.568;4.656;2023-05-19T02:57:55;7.66;85.43
68257;DHT22;55069;51.568;4.656;2023-05-19T03:00:21;7.64;85.39
68257;DHT22;55069;51.568;4.656;2023-05-19T03:02:47;7.60;85.52
68257;DHT22;55069;51.568;4.656;2023-05-19T03:05:12;7.59;85.47
68257;DHT22;55069;51.568;4.656;2023-05-19T03:07:38;7.57;85.82
68257;DHT22;55069;51.568;4.656;2023-05-19T03:10:04;7.54;85.65
68257;DHT22;55069;51.568;4.656;2023-05-19T03:12:31;7.50;85.55
68257;DHT22;55069;51.568;4.656;2023-05-19T03:14:58;7.49;85.63
68257;DHT22;55069;51.568;4.656;2023-05-19T03:17:24;7.50;85.78
68257;DHT22;55069;51.568;4.656;2023-05-19T03:19:49;7.50;85.70
68257;DHT22;55069;51.568;4.656;2023-05-19T03:22:15;7.49;85.71
68257;DHT22;55069;51.568;4.656;2023-05-19T03:24:43;7.52;85.62
68257;DHT22;55069;51.568;4.656;2023-05-19T03:27:09;7.52;85.58
68257;DHT22;55069;51.568;4.656;2023-05-19T03:29:35;7.45;85.51
68257;DHT22;55069;51.568;4.656;2023-05-19T03:32:01;7.40;85.70
68257;DHT22;55069;51.568;4.656;2023-05-19T03:34:27;7.43;85.53
68257;DHT22;55069;51.568;4.656;2023-05-19T03:36:52;7.39;85.78
68257;DHT22;55069;51.568;4.656;2023-05-19T03:39:19;7.39;85.44
68257;DHT22;55069;51.568;4.656;2023-05-19T03:41:47;7.40;85.81
68257;DHT22;55069;51.568;4.656;2023-05-19T03:44:12;7.37;85.65
68257;DHT22;55069;51.568;4.656;2023-05-19T03:46:38;7.36;85.84
68257;DHT22;55069;51.568;4.656;2023-05-19T03:49:23;7.39;85.69
68257;DHT22;55069;51.568;4.656;2023-05-19T03:52:27;7.42;85.16
68257;DHT22;55069;51.568;4.656;2023-05-19T03:54:58;7.39;85.55
68257;DHT22;55069;51.568;4.656;2023-05-19T03:57:24;7.37;85.37
68257;DHT22;55069;51.568;4.656;2023-05-19T03:59:49;7.40;85.42
68257;DHT22;55069;51.568;4.656;2023-05-19T04:02:15;7.32;85.85
68257;DHT22;55069;51.568;4.656;2023-05-19T04:04:40;7.33;85.16
68257;DHT22;55069;51.568;4.656;2023-05-19T04:07:06;7.39;85.72
68257;DHT22;55069;51.568;4.656;2023-05-19T04:09:32;7.42;85.40
68257;DHT22;55069;51.568;4.656;2023-05-19T04:12:00;7.40;85.45
68257;DHT22;55069;51.568;4.656;2023-05-19T04:14:29;7.40;85.56
68257;DHT22;55069;51.568;4.656;2023-05-19T04:16:55;7.45;85.37
68257;DHT22;55069;51.568;4.656;2023-05-19T04:19:20;7.42;85.70
68257;DHT22;55069;51.568;4.656;2023-05-19T04:21:46;7.43;86.03
68257;DHT22;55069;51.568;4.656;2023-05-19T04:24:11;7.40;86.26
68257;DHT22;55069;51.568;4.656;2023-05-19T04:26:37;7.43;86.18
68257;DHT22;55069;51.568;4.656;2023-05-19T04:29:06;7.45;86.16
68257;DHT22;55069;51.568;4.656;2023-05-19T04:31:33;7.45;86.15
68257;DHT22;55069;51.568;4.656;2023-05-19T04:34:00;7.52;86.60
68257;DHT22;55069;51.568;4.656;2023-05-19T04:36:26;7.52;86.50
68257;DHT22;55069;51.568;4.656;2023-05-19T04:38:53;7.59;86.53
68257;DHT22;55069;51.568;4.656;2023-05-19T04:41:19;7.59;86.46
68257;DHT22;55069;51.568;4.656;2023-05-19T04:43:46;7.63;86.28
68257;DHT22;55069;51.568;4.656;2023-05-19T04:46:13;7.60;86.24
68257;DHT22;55069;51.568;4.656;2023-05-19T04:48:39;7.64;86.02
68257;DHT22;55069;51.568;4.656;2023-05-19T04:51:05;7.64;86.08
68257;DHT22;55069;51.568;4.656;2023-05-19T04:53:32;7.70;86.41
68257;DHT22;55069;51.568;4.656;2023-05-19T04:55:58;7.71;86.00
68257;DHT22;55069;51.568;4.656;2023-05-19T04:58:26;7.77;86.26
68257;DHT22;55069;51.568;4.656;2023-05-19T05:00:53;7.83;86.20
68257;DHT22;55069;51.568;4.656;2023-05-19T05:03:24;7.84;86.10
68257;DHT22;55069;51.568;4.656;2023-05-19T05:05:50;7.87;85.97
68257;DHT22;55069;51.568;4.656;2023-05-19T05:08:17;7.97;86.00
68257;DHT22;55069;51.568;4.656;2023-05-19T05:10:49;8.02;85.86
68257;DHT22;55069;51.568;4.656;2023-05-19T05:13:16;8.08;85.99
68257;DHT22;55069;51.568;4.656;2023-05-19T05:15:41;8.12;85.78
68257;DHT22;55069;51.568;4.656;2023-05-19T05:18:08;8.20;85.58
68257;DHT22;55069;51.568;4.656;2023-05-19T05:20:34;8.21;85.59
68257;DHT22;55069;51.568;4.656;2023-05-19T05:23:00;8.24;85.44
68257;DHT22;55069;51.568;4.656;2023-05-19T05:25:26;8.32;85.37
68257;DHT22;55069;51.568;4.656;2023-05-19T05:27:52;8.41;85.29
68257;DHT22;55069;51.568;4.656;2023-05-19T05:30:18;8.45;84.92
68257;DHT22;55069;51.568;4.656;2023-05-19T05:32:44;8.54;85.01
68257;DHT22;55069;51.568;4.656;2023-05-19T05:35:24;8.64;84.87
68257;DHT22;55069;51.568;4.656;2023-05-19T05:37:49;8.62;84.07
68257;DHT22;55069;51.568;4.656;2023-05-19T05:40:15;8.69;84.58
68257;DHT22;55069;51.568;4.656;2023-05-19T05:42:42;8.80;84.49
68257;DHT22;55069;51.568;4.656;2023-05-19T05:45:07;8.84;83.93
68257;DHT22;55069;51.568;4.656;2023-05-19T05:47:34;8.92;83.81
68257;DHT22;55069;51.568;4.656;2023-05-19T05:50:07;8.98;83.93
68257;DHT22;55069;51.568;4.656;2023-05-19T05:52:35;9.07;83.56
68257;DHT22;55069;51.568;4.656;2023-05-19T05:55:02;9.19;83.44
68257;DHT22;55069;51.568;4.656;2023-05-19T05:57:29;9.29;83.40
68257;DHT22;55069;51.568;4.656;2023-05-19T05:59:55;9.46;82.45
68257;DHT22;55069;51.568;4.656;2023-05-19T06:02:21;9.43;81.82
68257;DHT22;55069;51.568;4.656;2023-05-19T06:04:47;9.56;81.82
68257;DHT22;55069;51.568;4.656;2023-05-19T06:07:13;9.65;82.01
68257;DHT22;55069;51.568;4.656;2023-05-19T06:09:38;9.77;81.32
68257;DHT22;55069;51.568;4.656;2023-05-19T06:12:05;9.83;81.21
68257;DHT22;55069;51.568;4.656;2023-05-19T06:14:36;9.86;80.51
68257;DHT22;55069;51.568;4.656;2023-05-19T06:17:13;10.00;80.50
68257;DHT22;55069;51.568;4.656;2023-05-19T06:19:39;10.04;80.62
68257;DHT22;55069;51.568;4.656;2023-05-19T06:22:04;10.11;80.40
68257;DHT22;55069;51.568;4.656;2023-05-19T06:24:30;10.20;79.37
68257;DHT22;55069;51.568;4.656;2023-05-19T06:26:56;10.30;79.31
68257;DHT22;55069;51.568;4.656;2023-05-19T06:29:21;10.38;78.73
68257;DHT22;55069;51.568;4.656;2023-05-19T06:31:48;10.51;78.73
68257;DHT22;55069;51.568;4.656;2023-05-19T06:34:15;10.61;78.09
68257;DHT22;55069;51.568;4.656;2023-05-19T06:36:43;10.63;78.13
68257;DHT22;55069;51.568;4.656;2023-05-19T06:39:09;10.66;77.51
68257;DHT22;55069;51.568;4.656;2023-05-19T06:41:35;10.75;77.34
68257;DHT22;55069;51.568;4.656;2023-05-19T06:44:02;10.90;77.05
68257;DHT22;55069;51.568;4.656;2023-05-19T06:46:31;10.96;76.59
68257;DHT22;55069;51.568;4.656;2023-05-19T06:48:57;11.09;76.32
68257;DHT22;55069;51.568;4.656;2023-05-19T06:51:23;11.18;76.39
68257;DHT22;55069;51.568;4.656;2023-05-19T06:53:53;11.27;75.41
68257;DHT22;55069;51.568;4.656;2023-05-19T06:56:20;11.27;75.16
68257;DHT22;55069;51.568;4.656;2023-05-19T06:58:47;11.38;75.72
68257;DHT22;55069;51.568;4.656;2023-05-19T07:01:13;11.54;75.70
68257;DHT22;55069;51.568;4.656;2023-05-19T07:03:43;11.68;75.33
68257;DHT22;55069;51.568;4.656;2023-05-19T07:06:11;11.82;74.84
68257;DHT22;55069;51.568;4.656;2023-05-19T07:08:37;11.79;73.22
68257;DHT22;55069;51.568;4.656;2023-05-19T07:11:04;11.92;74.32
68257;DHT22;55069;51.568;4.656;2023-05-19T07:13:29;11.90;73.70
68257;DHT22;55069;51.568;4.656;2023-05-19T07:15:57;11.86;73.96
68257;DHT22;55069;51.568;4.656;2023-05-19T07:18:24;11.96;73.58
68257;DHT22;55069;51.568;4.656;2023-05-19T07:20:51;11.96;74.27
68257;DHT22;55069;51.568;4.656;2023-05-19T07:23:17;11.92;73.04
68257;DHT22;55069;51.568;4.656;2023-05-19T07:25:44;11.95;73.61
68257;DHT22;55069;51.568;4.656;2023-05-19T07:28:10;12.02;73.83
68257;DHT22;55069;51.568;4.656;2023-05-19T07:30:36;12.13;72.52
68257;DHT22;55069;51.568;4.656;2023-05-19T07:33:02;12.17;72.65
68257;DHT22;55069;51.568;4.656;2023-05-19T07:35:27;12.27;72.57
68257;DHT22;55069;51.568;4.656;2023-05-19T07:37:53;12.44;72.86
68257;DHT22;55069;51.568;4.656;2023-05-19T07:40:19;12.60;72.65
68257;DHT22;55069;51.568;4.656;2023-05-19T07:42:44;12.78;73.21
68257;DHT22;55069;51.568;4.656;2023-05-19T07:45:10;12.96;71.39
68257;DHT22;55069;51.568;4.656;2023-05-19T07:47:36;13.19;71.46
68257;DHT22;55069;51.568;4.656;2023-05-19T07:50:02;13.27;70.66
68257;DHT22;55069;51.568;4.656;2023-05-19T07:52:28;13.32;69.93
68257;DHT22;55069;51.568;4.656;2023-05-19T07:54:53;13.47;68.88
68257;DHT22;55069;51.568;4.656;2023-05-19T07:57:19;13.70;69.00
68257;DHT22;55069;51.568;4.656;2023-05-19T07:59:44;13.81;67.68
68257;DHT22;55069;51.568;4.656;2023-05-19T08:02:10;13.97;68.78
68257;DHT22;55069;51.568;4.656;2023-05-19T08:04:35;14.12;68.62
68257;DHT22;55069;51.568;4.656;2023-05-19T08:07:01;14.36;67.81
68257;DHT22;55069;51.568;4.656;2023-05-19T08:09:26;14.47;67.98
68257;DHT22;55069;51.568;4.656;2023-05-19T08:11:52;14.34;67.05
68257;DHT22;55069;51.568;4.656;2023-05-19T08:14:18;14.43;65.81
68257;DHT22;55069;51.568;4.656;2023-05-19T08:16:44;14.61;65.79
68257;DHT22;55069;51.568;4.656;2023-05-19T08:19:10;14.79;64.73
68257;DHT22;55069;51.568;4.656;2023-05-19T08:21:36;14.76;64.98
68257;DHT22;55069;51.568;4.656;2023-05-19T08:24:01;14.84;65.17
68257;DHT22;55069;51.568;4.656;2023-05-19T08:26:27;15.09;65.77
68257;DHT22;55069;51.568;4.656;2023-05-19T08:28:53;15.09;63.99
68257;DHT22;55069;51.568;4.656;2023-05-19T08:31:19;15.25;65.95
68257;DHT22;55069;51.568;4.656;2023-05-19T08:33:45;15.42;63.48
68257;DHT22;55069;51.568;4.656;2023-05-19T08:36:10;15.39;61.87
68257;DHT22;55069;51.568;4.656;2023-05-19T08:38:36;15.36;62.56
68257;DHT22;55069;51.568;4.656;2023-05-19T08:41:02;15.29;61.30
68257;DHT22;55069;51.568;4.656;2023-05-19T08:43:28;15.39;61.38
68257;DHT22;55069;51.568;4.656;2023-05-19T08:45:54;15.53;61.82
68257;DHT22;55069;51.568;4.656;2023-05-19T08:48:20;15.65;61.83
68257;DHT22;55069;51.568;4.656;2023-05-19T08:54:11;15.98;60.49
68257;DHT22;55069;51.568;4.656;2023-05-19T08:56:39;16.05;59.24
68257;DHT22;55069;51.568;4.656;2023-05-19T08:59:05;16.31;59.17
68257;DHT22;55069;51.568;4.656;2023-05-19T09:01:31;16.49;58.32
68257;DHT22;55069;51.568;4.656;2023-05-19T09:03:57;16.65;58.19
68257;DHT22;55069;51.568;4.656;2023-05-19T09:06:24;16.68;57.59
68257;DHT22;55069;51.568;4.656;2023-05-19T09:08:49;16.66;57.53
68257;DHT22;55069;51.568;4.656;2023-05-19T09:11:15;16.79;58.00
68257;DHT22;55069;51.568;4.656;2023-05-19T09:13:41;16.76;57.23
68257;DHT22;55069;51.568;4.656;2023-05-19T09:16:06;16.76;57.55
68257;DHT22;55069;51.568;4.656;2023-05-19T09:18:32;16.80;57.22
68257;DHT22;55069;51.568;4.656;2023-05-19T09:20:59;16.86;57.68
68257;DHT22;55069;51.568;4.656;2023-05-19T09:23:31;16.82;56.30
68257;DHT22;55069;51.568;4.656;2023-05-19T09:26:04;16.75;55.99
68257;DHT22;55069;51.568;4.656;2023-05-19T09:28:34;16.62;56.12
68257;DHT22;55069;51.568;4.656;2023-05-19T09:31:04;16.79;56.59
68257;DHT22;55069;51.568;4.656;2023-05-19T09:33:35;17.09;56.07
68257;DHT22;55069;51.568;4.656;2023-05-19T09:36:02;17.30;55.04
68257;DHT22;55069;51.568;4.656;2023-05-19T09:38:30;17.24;55.08
68257;DHT22;55069;51.568;4.656;2023-05-19T09:40:57;17.41;55.43
68257;DHT22;55069;51.568;4.656;2023-05-19T09:43:30;17.72;54.84
68257;DHT22;55069;51.568;4.656;2023-05-19T09:46:03;17.64;52.26
68257;DHT22;55069;51.568;4.656;2023-05-19T09:48:30;17.52;52.76
68257;DHT22;55069;51.568;4.656;2023-05-19T09:50:56;17.48;53.45
68257;DHT22;55069;51.568;4.656;2023-05-19T09:53:23;17.86;54.66
68257;DHT22;55069;51.568;4.656;2023-05-19T09:55:50;17.85;53.14
68257;DHT22;55069;51.568;4.656;2023-05-19T09:58:17;17.65;51.73
68257;DHT22;55069;51.568;4.656;2023-05-19T10:00:44;17.79;49.99
68257;DHT22;55069;51.568;4.656;2023-05-19T10:03:11;17.97;45.63
68257;DHT22;55069;51.568;4.656;2023-05-19T10:05:37;18.17;48.00
68257;DHT22;55069;51.568;4.656;2023-05-19T10:08:05;18.51;46.20
68257;DHT22;55069;51.568;4.656;2023-05-19T10:10:35;18.73;46.18
68257;DHT22;55069;51.568;4.656;2023-05-19T10:13:01;18.73;46.76
68257;DHT22;55069;51.568;4.656;2023-05-19T10:15:29;18.58;47.96
68257;DHT22;55069;51.568;4.656;2023-05-19T10:17:55;18.84;50.74
68257;DHT22;55069;51.568;4.656;2023-05-19T10:20:21;19.16;48.60
68257;DHT22;55069;51.568;4.656;2023-05-19T10:22:46;19.51;46.89
68257;DHT22;55069;51.568;4.656;2023-05-19T10:25:13;19.66;48.67
68257;DHT22;55069;51.568;4.656;2023-05-19T10:28:00;19.46;48.94
68257;DHT22;55069;51.568;4.656;2023-05-19T10:30:38;19.58;47.12
68257;DHT22;55069;51.568;4.656;2023-05-19T10:33:07;19.54;45.92
68257;DHT22;55069;51.568;4.656;2023-05-19T10:41:06;19.98;45.49
68257;DHT22;55069;51.568;4.656;2023-05-19T10:46:23;19.46;45.85
68257;DHT22;55069;51.568;4.656;2023-05-19T10:48:50;19.05;50.00
68257;DHT22;55069;51.568;4.656;2023-05-19T10:51:17;18.91;48.08
68257;DHT22;55069;51.568;4.656;2023-05-19T10:53:42;18.98;50.24
68257;DHT22;55069;51.568;4.656;2023-05-19T10:56:26;19.06;50.44
68257;DHT22;55069;51.568;4.656;2023-05-19T10:58:54;19.13;51.29
68257;DHT22;55069;51.568;4.656;2023-05-19T11:01:20;19.02;51.31
68257;DHT22;55069;51.568;4.656;2023-05-19T11:03:53;19.16;49.26
68257;DHT22;55069;51.568;4.656;2023-05-19T11:06:29;18.87;50.84
68257;DHT22;55069;51.568;4.656;2023-05-19T11:09:14;19.31;51.29
68257;DHT22;55069;51.568;4.656;2023-05-19T11:11:52;19.46;49.51
68257;DHT22;55069;51.568;4.656;2023-05-19T11:14:22;19.05;48.48
68257;DHT22;55069;51.568;4.656;2023-05-19T11:16:52;18.98;50.43
68257;DHT22;55069;51.568;4.656;2023-05-19T11:19:30;19.24;49.10
68257;DHT22;55069;51.568;4.656;2023-05-19T11:22:12;19.63;48.48
68257;DHT22;55069;51.568;4.656;2023-05-19T11:24:42;19.66;45.54
68257;DHT22;55069;51.568;4.656;2023-05-19T11:29:46;19.67;46.55
68257;DHT22;55069;51.568;4.656;2023-05-19T11:32:13;19.71;48.06
68257;DHT22;55069;51.568;4.656;2023-05-19T11:34:39;20.02;47.24
68257;DHT22;55069;51.568;4.656;2023-05-19T11:37:07;19.84;47.43
68257;DHT22;55069;51.568;4.656;2023-05-19T11:39:34;20.33;47.57
68257;DHT22;55069;51.568;4.656;2023-05-19T11:42:00;20.57;47.33
68257;DHT22;55069;51.568;4.656;2023-05-19T11:44:25;20.37;46.59
68257;DHT22;55069;51.568;4.656;2023-05-19T11:46:51;20.32;47.30
68257;DHT22;55069;51.568;4.656;2023-05-19T11:49:17;20.29;46.70
68257;DHT22;55069;51.568;4.656;2023-05-19T11:51:44;20.08;44.50
68257;DHT22;55069;51.568;4.656;2023-05-19T11:54:10;20.37;47.74
68257;DHT22;55069;51.568;4.656;2023-05-19T11:56:40;20.49;47.27
68257;DHT22;55069;51.568;4.656;2023-05-19T11:59:06;20.79;46.79
68257;DHT22;55069;51.568;4.656;2023-05-19T12:01:33;20.90;45.25
68257;DHT22;55069;51.568;4.656;2023-05-19T12:03:59;20.54;45.81
68257;DHT22;55069;51.568;4.656;2023-05-19T12:06:26;20.66;45.48
68257;DHT22;55069;51.568;4.656;2023-05-19T12:08:55;20.60;45.35
68257;DHT22;55069;51.568;4.656;2023-05-19T12:11:22;20.83;44.71
68257;DHT22;55069;51.568;4.656;2023-05-19T12:13:48;20.79;43.82
68257;DHT22;55069;51.568;4.656;2023-05-19T12:16:19;20.69;43.18
68257;DHT22;55069;51.568;4.656;2023-05-19T12:18:44;21.00;42.42
68257;DHT22;55069;51.568;4.656;2023-05-19T12:21:10;21.04;43.11
68257;DHT22;55069;51.568;4.656;2023-05-19T12:23:37;20.98;43.65
68257;DHT22;55069;51.568;4.656;2023-05-19T12:26:03;21.29;43.52
68257;DHT22;55069;51.568;4.656;2023-05-19T12:28:29;21.17;43.36
68257;DHT22;55069;51.568;4.656;2023-05-19T12:30:57;20.90;42.27
68257;DHT22;55069;51.568;4.656;2023-05-19T12:33:24;21.00;43.49
68257;DHT22;55069;51.568;4.656;2023-05-19T12:35:50;20.67;40.95
68257;DHT22;55069;51.568;4.656;2023-05-19T12:38:15;20.88;44.63
68257;DHT22;55069;51.568;4.656;2023-05-19T12:40:42;21.04;42.77
68257;DHT22;55069;51.568;4.656;2023-05-19T12:43:18;21.32;42.39
68257;DHT22;55069;51.568;4.656;2023-05-19T12:45:44;21.08;40.92
68257;DHT22;55069;51.568;4.656;2023-05-19T12:48:13;21.31;42.49
68257;DHT22;55069;51.568;4.656;2023-05-19T12:50:43;20.95;38.94
68257;DHT22;55069;51.568;4.656;2023-05-19T12:53:13;20.85;38.81
68257;DHT22;55069;51.568;4.656;2023-05-19T12:55:43;20.74;38.45
68257;DHT22;55069;51.568;4.656;2023-05-19T12:58:10;20.74;38.83
68257;DHT22;55069;51.568;4.656;2023-05-19T13:00:40;21.09;41.47
68257;DHT22;55069;51.568;4.656;2023-05-19T13:03:07;21.59;39.74
68257;DHT22;55069;51.568;4.656;2023-05-19T13:05:39;21.93;39.55
68257;DHT22;55069;51.568;4.656;2023-05-19T13:08:12;21.70;38.43
68257;DHT22;55069;51.568;4.656;2023-05-19T13:10:40;21.09;37.56
68257;DHT22;55069;51.568;4.656;2023-05-19T13:13:07;20.98;39.36
68257;DHT22;55069;51.568;4.656;2023-05-19T13:15:36;21.35;40.98
68257;DHT22;55069;51.568;4.656;2023-05-19T13:18:04;21.50;39.13
68257;DHT22;55069;51.568;4.656;2023-05-19T13:20:33;21.76;40.16
68257;DHT22;55069;51.568;4.656;2023-05-19T13:23:00;21.43;40.59
68257;DHT22;55069;51.568;4.656;2023-05-19T13:25:26;21.69;40.83
68257;DHT22;55069;51.568;4.656;2023-05-19T13:27:52;21.79;42.02
68257;DHT22;55069;51.568;4.656;2023-05-19T13:30:19;21.87;42.23
68257;DHT22;55069;51.568;4.656;2023-05-19T13:32:46;22.00;41.40
68257;DHT22;55069;51.568;4.656;2023-05-19T13:35:13;21.94;39.74
68257;DHT22;55069;51.568;4.656;2023-05-19T13:37:39;22.30;41.19
68257;DHT22;55069;51.568;4.656;2023-05-19T13:40:05;22.49;42.73
68257;DHT22;55069;51.568;4.656;2023-05-19T13:42:31;22.73;40.15
68257;DHT22;55069;51.568;4.656;2023-05-19T13:44:57;23.09;40.42
68257;DHT22;55069;51.568;4.656;2023-05-19T13:47:23;23.17;40.83
68257;DHT22;55069;51.568;4.656;2023-05-19T13:49:49;22.99;40.67
68257;DHT22;55069;51.568;4.656;2023-05-19T13:52:15;22.59;38.27
68257;DHT22;55069;51.568;4.656;2023-05-19T13:54:41;22.73;40.02
68257;DHT22;55069;51.568;4.656;2023-05-19T13:57:07;22.48;40.33
68257;DHT22;55069;51.568;4.656;2023-05-19T13:59:33;22.28;38.93
68257;DHT22;55069;51.568;4.656;2023-05-19T14:01:59;22.11;39.19
68257;DHT22;55069;51.568;4.656;2023-05-19T14:04:27;22.22;39.80
68257;DHT22;55069;51.568;4.656;2023-05-19T14:06:53;22.18;39.41
68257;DHT22;55069;51.568;4.656;2023-05-19T14:09:19;22.61;40.64
68257;DHT22;55069;51.568;4.656;2023-05-19T14:11:46;22.69;38.81
68257;DHT22;55069;51.568;4.656;2023-05-19T14:14:12;22.96;40.31
68257;DHT22;55069;51.568;4.656;2023-05-19T14:16:39;23.06;39.98
68257;DHT22;55069;51.568;4.656;2023-05-19T14:19:05;22.82;38.34
68257;DHT22;55069;51.568;4.656;2023-05-19T14:21:30;22.62;39.36
68257;DHT22;55069;51.568;4.656;2023-05-19T14:23:56;22.83;39.63
68257;DHT22;55069;51.568;4.656;2023-05-19T14:26:22;22.77;39.04
68257;DHT22;55069;51.568;4.656;2023-05-19T14:28:48;22.85;38.25
68257;DHT22;55069;51.568;4.656;2023-05-19T14:31:13;22.86;39.44
68257;DHT22;55069;51.568;4.656;2023-05-19T14:33:40;23.13;38.84
68257;DHT22;55069;51.568;4.656;2023-05-19T14:36:06;23.17;38.56
68257;DHT22;55069;51.568;4.656;2023-05-19T14:38:32;23.33;38.72
68257;DHT22;55069;51.568;4.656;2023-05-19T14:40:58;23.43;39.12
68257;DHT22;55069;51.568;4.656;2023-05-19T14:43:24;23.26;38.70
68257;DHT22;55069;51.568;4.656;2023-05-19T14:45:49;23.27;40.01
68257;DHT22;55069;51.568;4.656;2023-05-19T14:48:15;23.20;39.21
68257;DHT22;55069;51.568;4.656;2023-05-19T14:50:41;22.35;36.64
68257;DHT22;55069;51.568;4.656;2023-05-19T14:53:07;22.80;38.73
68257;DHT22;55069;51.568;4.656;2023-05-19T14:55:33;22.32;37.15
68257;DHT22;55069;51.568;4.656;2023-05-19T14:57:58;21.35;38.15
68257;DHT22;55069;51.568;4.656;2023-05-19T15:00:24;21.32;40.44
68257;DHT22;55069;51.568;4.656;2023-05-19T15:02:53;21.79;40.05
68257;DHT22;55069;51.568;4.656;2023-05-19T15:05:19;22.22;38.33
68257;DHT22;55069;51.568;4.656;2023-05-19T15:07:44;22.14;37.49
68257;DHT22;55069;51.568;4.656;2023-05-19T15:10:10;22.35;39.73
68257;DHT22;55069;51.568;4.656;2023-05-19T15:12:36;22.62;39.11
68257;DHT22;55069;51.568;4.656;2023-05-19T15:15:01;23.00;37.57
68257;DHT22;55069;51.568;4.656;2023-05-19T15:17:28;23.31;36.79
68257;DHT22;55069;51.568;4.656;2023-05-19T15:19:53;23.09;37.43
68257;DHT22;55069;51.568;4.656;2023-05-19T15:22:19;22.56;38.61
68257;DHT22;55069;51.568;4.656;2023-05-19T15:24:44;22.40;39.26
68257;DHT22;55069;51.568;4.656;2023-05-19T15:27:10;22.24;38.45
68257;DHT22;55069;51.568;4.656;2023-05-19T15:29:35;22.51;39.19
68257;DHT22;55069;51.568;4.656;2023-05-19T15:32:01;22.51;39.62
68257;DHT22;55069;51.568;4.656;2023-05-19T15:34:27;22.34;38.11
68257;DHT22;55069;51.568;4.656;2023-05-19T15:36:52;21.65;38.21
68257;DHT22;55069;51.568;4.656;2023-05-19T15:39:18;21.35;39.63
68257;DHT22;55069;51.568;4.656;2023-05-19T15:41:43;21.60;37.32
68257;DHT22;55069;51.568;4.656;2023-05-19T15:44:09;22.15;40.36
68257;DHT22;55069;51.568;4.656;2023-05-19T15:46:34;22.28;36.56
68257;DHT22;55069;51.568;4.656;2023-05-19T15:49:00;22.14;38.52
68257;DHT22;55069;51.568;4.656;2023-05-19T15:51:26;22.37;38.78
68257;DHT22;55069;51.568;4.656;2023-05-19T15:53:52;22.99;38.48
68257;DHT22;55069;51.568;4.656;2023-05-19T15:56:17;23.17;37.38
68257;DHT22;55069;51.568;4.656;2023-05-19T15:58:46;23.27;35.06
68257;DHT22;55069;51.568;4.656;2023-05-19T16:01:13;22.99;36.41
68257;DHT22;55069;51.568;4.656;2023-05-19T16:03:39;23.30;37.72